Burton, Illinois
Current Conditions -  °F | °C
As of 12:54 PM on Tuesday 21 Oct 2014 (Local Time) from KUIN Reporting Station
Clear Clear  
Wind Chill: 62°   Ceiling: Unl
Heat Index: 62°   Visibility: 10mi
Dew Point: 43°   Wind: 8mph
Humidity: 50%   Direction: 30°NNE
Pressure: 30.15"   Gusts: NA
Location:  39.9317°N, 91.2953°W
Report Text: KUIN 211754Z AUTO 03007KT 10SM CLR 17/06 A3015 RMK AO2 SLP208 T01670061 10167 20044 58002
Loading
Personal Weather Stations






























Interactive Weather Map New forecast layout! Learn more

10-Day Weather Forecast

Advertisements
Track Severe Weather on mobile